createdAt,value
2023-03-22T00:01:23.928Z,10.50
2023-03-22T00:03:52.788Z,10.50
2023-03-22T00:06:20.412Z,10.50
2023-03-22T00:08:51.350Z,10.60
2023-03-22T00:11:20.647Z,10.70
2023-03-22T00:13:47.880Z,10.80
2023-03-22T00:16:15.616Z,10.80
2023-03-22T00:18:42.669Z,10.90
2023-03-22T00:21:15.811Z,10.80
2023-03-22T00:23:44.111Z,10.90
2023-03-22T00:26:13.333Z,10.80
2023-03-22T00:28:40.752Z,10.80
2023-03-22T00:31:09.240Z,10.90
2023-03-22T00:33:37.054Z,10.90
2023-03-22T00:36:08.691Z,10.90
2023-03-22T00:38:43.692Z,10.90
2023-03-22T00:41:19.688Z,10.90
2023-03-22T00:43:48.807Z,10.90
2023-03-22T00:46:18.418Z,10.90
2023-03-22T00:48:45.768Z,10.90
2023-03-22T00:51:14.974Z,10.90
2023-03-22T00:53:43.639Z,11.00
2023-03-22T00:56:15.787Z,11.00
2023-03-22T00:58:43.790Z,11.00
2023-03-22T01:01:14.039Z,11.10
2023-03-22T01:03:42.808Z,11.00
2023-03-22T01:06:11.104Z,11.10
2023-03-22T01:08:39.446Z,11.10
2023-03-22T01:11:08.502Z,11.10
2023-03-22T01:13:37.853Z,11.10
2023-03-22T01:16:07.155Z,11.10
2023-03-22T01:18:34.916Z,11.10
2023-03-22T01:21:02.244Z,11.10
2023-03-22T01:23:29.364Z,11.20
2023-03-22T01:25:56.366Z,11.20
2023-03-22T01:28:26.460Z,11.20
2023-03-22T01:30:55.192Z,11.20
2023-03-22T01:33:22.538Z,11.30
2023-03-22T01:35:49.596Z,11.20
2023-03-22T01:38:16.702Z,11.20
2023-03-22T01:40:43.856Z,11.20
2023-03-22T01:43:15.740Z,11.20
2023-03-22T01:45:46.399Z,11.10
2023-03-22T01:48:34.809Z,11.10
2023-03-22T01:51:20.613Z,11.10
2023-03-22T01:53:55.302Z,11.10
2023-03-22T01:56:25.989Z,11.20
2023-03-22T01:58:55.188Z,11.10
2023-03-22T02:01:23.889Z,11.10
2023-03-22T02:04:03.330Z,11.20
2023-03-22T02:06:32.439Z,11.20
2023-03-22T02:08:59.521Z,11.20
2023-03-22T02:11:33.506Z,11.20
2023-03-22T02:14:23.481Z,11.10
2023-03-22T02:17:15.573Z,11.10
2023-03-22T02:20:13.007Z,11.10
2023-03-22T02:23:07.132Z,11.10
2023-03-22T02:26:11.161Z,11.10
2023-03-22T02:28:58.509Z,11.10
2023-03-22T02:32:05.101Z,11.10
2023-03-22T02:35:02.949Z,11.10
2023-03-22T02:38:16.608Z,11.00
2023-03-22T02:40:49.272Z,11.00
2023-03-22T02:43:52.961Z,11.00
2023-03-22T02:46:34.700Z,10.90
2023-03-22T02:49:31.273Z,10.90
2023-03-22T02:52:17.556Z,10.90
2023-03-22T02:55:12.036Z,10.90
2023-03-22T02:58:40.144Z,10.90
2023-03-22T03:01:18.407Z,10.80
2023-03-22T03:03:52.581Z,10.70
2023-03-22T03:06:25.659Z,10.70
2023-03-22T03:08:54.530Z,10.70
2023-03-22T03:11:21.821Z,10.60
2023-03-22T03:13:49.862Z,10.60
2023-03-22T03:16:21.131Z,10.50
2023-03-22T03:18:56.215Z,10.50
2023-03-22T03:21:45.289Z,10.50
2023-03-22T03:24:18.923Z,10.50
2023-03-22T03:26:57.774Z,10.50
2023-03-22T03:29:46.724Z,10.50
2023-03-22T03:32:38.386Z,10.50
2023-03-22T03:35:23.066Z,10.50
2023-03-22T03:37:54.874Z,10.50
2023-03-22T03:40:36.378Z,10.50
2023-03-22T03:43:06.248Z,10.50
2023-03-22T03:45:34.992Z,10.50
2023-03-22T03:48:08.128Z,10.50
2023-03-22T03:50:35.351Z,10.40
2023-03-22T03:53:03.227Z,10.40
2023-03-22T03:55:31.673Z,10.40
2023-03-22T03:57:58.763Z,10.30
2023-03-22T04:00:25.756Z,10.40
2023-03-22T04:02:52.804Z,10.30
2023-03-22T04:05:19.911Z,10.30
2023-03-22T04:07:46.913Z,10.30
2023-03-22T04:10:14.026Z,10.30
2023-03-22T04:12:40.950Z,10.30
2023-03-22T04:15:09.012Z,10.30
2023-03-22T04:17:36.025Z,10.30
2023-03-22T04:20:06.028Z,10.30
2023-03-22T04:22:34.570Z,10.30
2023-03-22T04:25:02.021Z,10.30
2023-03-22T04:27:29.055Z,10.20
2023-03-22T04:29:56.180Z,10.20
2023-03-22T04:32:23.411Z,10.10
2023-03-22T04:34:51.808Z,10.10
2023-03-22T04:37:22.584Z,10.10
2023-03-22T04:39:49.534Z,10.10
2023-03-22T04:42:16.570Z,10.10
2023-03-22T04:44:43.629Z,10.20
2023-03-22T04:47:10.864Z,10.20
2023-03-22T04:49:38.236Z,10.20
2023-03-22T04:52:05.410Z,10.20
2023-03-22T04:54:33.111Z,10.20
2023-03-22T04:57:01.008Z,10.20
2023-03-22T04:59:28.065Z,10.20
2023-03-22T05:01:55.183Z,10.20
2023-03-22T05:04:22.811Z,10.20
2023-03-22T05:06:49.955Z,10.20
2023-03-22T05:09:17.310Z,10.20
2023-03-22T05:11:44.519Z,10.20
2023-03-22T05:14:11.958Z,10.20
2023-03-22T05:16:41.715Z,10.30
2023-03-22T05:19:14.803Z,10.30
2023-03-22T05:21:44.127Z,10.20
2023-03-22T05:24:11.963Z,10.20
2023-03-22T05:26:42.334Z,10.20
2023-03-22T05:29:11.187Z,10.20
2023-03-22T05:31:40.345Z,10.20
2023-03-22T05:34:08.157Z,10.10
2023-03-22T05:36:36.624Z,10.10
2023-03-22T05:39:04.381Z,10.10
2023-03-22T05:41:31.798Z,10.10
2023-03-22T05:43:58.797Z,10.10
2023-03-22T05:46:26.162Z,10.10
2023-03-22T05:48:53.337Z,10.10
2023-03-22T05:51:20.373Z,10.10
2023-03-22T05:53:48.537Z,10.10
2023-03-22T05:56:16.135Z,10.10
2023-03-22T05:59:32.182Z,10.10
2023-03-22T06:01:59.208Z,10.10
2023-03-22T06:04:26.164Z,10.10
2023-03-22T06:06:53.977Z,10.10
2023-03-22T06:09:21.366Z,10.10
2023-03-22T06:11:48.408Z,10.10
2023-03-22T06:14:15.948Z,10.10
2023-03-22T06:16:43.123Z,10.20
2023-03-22T06:19:10.378Z,10.30
2023-03-22T06:21:37.352Z,10.30
2023-03-22T06:24:05.034Z,10.30
2023-03-22T06:26:32.032Z,10.30
2023-03-22T06:28:59.283Z,10.30
2023-03-22T06:31:26.250Z,10.30
2023-03-22T06:33:55.791Z,10.40
2023-03-22T06:36:23.022Z,10.40
2023-03-22T06:38:49.980Z,10.50
2023-03-22T06:41:16.922Z,10.50
2023-03-22T06:43:43.974Z,10.60
2023-03-22T06:46:11.300Z,10.60
2023-03-22T06:48:38.411Z,10.70
2023-03-22T06:51:06.086Z,10.70
2023-03-22T06:53:33.176Z,10.70
2023-03-22T06:56:00.374Z,10.70
2023-03-22T06:58:27.463Z,10.70
2023-03-22T07:00:57.199Z,10.70
2023-03-22T07:03:24.425Z,10.70
2023-03-22T07:05:51.416Z,10.70
2023-03-22T07:08:18.372Z,10.70
2023-03-22T07:10:51.303Z,10.80
2023-03-22T07:13:18.346Z,10.80
2023-03-22T07:15:45.465Z,10.90
2023-03-22T07:18:12.778Z,10.90
2023-03-22T07:20:41.763Z,10.90
2023-03-22T07:23:10.887Z,11.00
2023-03-22T07:25:38.047Z,11.00
2023-03-22T07:28:06.996Z,11.00
2023-03-22T07:30:37.838Z,11.00
2023-03-22T07:33:07.222Z,11.00
2023-03-22T07:35:34.603Z,11.00
2023-03-22T07:38:01.781Z,11.00
2023-03-22T07:40:28.879Z,11.00
2023-03-22T07:42:56.114Z,10.90
2023-03-22T07:45:23.779Z,10.90
2023-03-22T07:47:50.796Z,11.00
2023-03-22T07:50:19.621Z,10.90
2023-03-22T07:52:47.393Z,11.00
2023-03-22T07:55:14.949Z,11.00
2023-03-22T07:57:42.065Z,11.10
2023-03-22T08:00:13.363Z,11.10
2023-03-22T08:02:40.447Z,11.20
2023-03-22T08:05:08.304Z,11.20
2023-03-22T08:07:35.360Z,11.30
2023-03-22T08:10:03.332Z,11.30
2023-03-22T08:12:32.484Z,11.40
2023-03-22T08:14:59.453Z,11.30
2023-03-22T08:17:26.652Z,11.30
2023-03-22T08:19:56.721Z,11.30
2023-03-22T08:22:29.945Z,11.30
2023-03-22T08:24:56.992Z,11.30
2023-03-22T08:27:24.015Z,11.30
2023-03-22T08:29:51.115Z,11.40
2023-03-22T08:32:18.531Z,11.50
2023-03-22T08:34:46.025Z,11.50
2023-03-22T08:37:13.686Z,11.50
2023-03-22T08:39:40.930Z,11.60
2023-03-22T08:42:07.892Z,11.60
2023-03-22T08:44:34.862Z,11.70
2023-03-22T08:47:03.254Z,11.60
2023-03-22T08:49:31.437Z,11.60
2023-03-22T08:51:58.442Z,11.60
2023-03-22T08:54:28.108Z,11.60
2023-03-22T08:56:55.178Z,11.60
2023-03-22T08:59:22.130Z,11.50
2023-03-22T09:01:49.523Z,11.60
2023-03-22T09:04:18.649Z,11.60
2023-03-22T09:06:47.016Z,11.60
2023-03-22T09:09:14.733Z,11.70
2023-03-22T09:11:42.859Z,11.70
2023-03-22T09:14:10.802Z,11.60
2023-03-22T09:16:37.950Z,11.60
2023-03-22T09:19:05.006Z,11.70
2023-03-22T09:21:31.997Z,11.70
2023-03-22T09:23:59.044Z,11.70
2023-03-22T09:26:27.142Z,11.50
2023-03-22T09:28:54.259Z,11.50
2023-03-22T09:31:21.443Z,11.40
2023-03-22T09:33:48.431Z,11.40
2023-03-22T09:36:15.881Z,11.30
2023-03-22T09:38:43.011Z,11.30
2023-03-22T09:41:38.425Z,11.30
2023-03-22T09:44:22.635Z,11.30
2023-03-22T09:46:55.557Z,11.20
2023-03-22T09:49:50.493Z,11.20
2023-03-22T09:52:19.934Z,11.20
2023-03-22T09:54:47.476Z,11.10
2023-03-22T09:57:40.738Z,11.10
2023-03-22T10:00:27.147Z,11.00
2023-03-22T10:03:17.269Z,10.90
2023-03-22T10:05:57.825Z,11.00
2023-03-22T10:08:39.677Z,11.00
2023-03-22T10:11:30.274Z,11.10
2023-03-22T10:14:35.357Z,11.10
2023-03-22T10:17:10.212Z,11.10
2023-03-22T10:20:08.965Z,11.10
2023-03-22T10:22:43.977Z,11.20
2023-03-22T10:25:19.771Z,11.20
2023-03-22T10:27:50.697Z,11.10
2023-03-22T10:30:30.508Z,11.10
2023-03-22T10:33:03.472Z,11.20
2023-03-22T10:35:32.172Z,11.20
2023-03-22T10:38:04.530Z,11.30
2023-03-22T10:40:34.914Z,11.40
2023-03-22T10:43:24.253Z,11.40
2023-03-22T10:45:53.956Z,11.50
2023-03-22T10:48:33.243Z,11.60
2023-03-22T10:51:01.473Z,11.70
2023-03-22T10:53:40.349Z,11.80
2023-03-22T10:56:15.760Z,11.90
2023-03-22T10:58:43.575Z,12.00
2023-03-22T11:01:36.940Z,11.90
2023-03-22T11:04:04.086Z,12.00
2023-03-22T11:06:35.362Z,12.20
2023-03-22T11:09:19.917Z,12.20
2023-03-22T11:11:59.263Z,12.30
2023-03-22T11:14:42.395Z,12.40
2023-03-22T11:17:14.619Z,12.30
2023-03-22T11:19:55.765Z,12.30
2023-03-22T11:22:33.311Z,12.20
2023-03-22T11:25:02.387Z,12.20
2023-03-22T11:27:33.137Z,12.30
2023-03-22T11:30:20.365Z,12.30
2023-03-22T11:32:47.781Z,12.40
2023-03-22T11:35:16.655Z,12.50
2023-03-22T11:37:47.630Z,12.40
2023-03-22T11:40:22.776Z,12.40
2023-03-22T11:42:55.678Z,12.40
2023-03-22T11:45:36.156Z,12.40
2023-03-22T11:48:08.735Z,12.40
2023-03-22T11:50:39.868Z,12.40
2023-03-22T11:53:14.790Z,12.30
2023-03-22T11:55:43.149Z,12.30
2023-03-22T11:58:39.152Z,12.30
2023-03-22T12:01:11.006Z,12.30
2023-03-22T12:03:41.874Z,12.20
2023-03-22T12:06:33.455Z,12.20
2023-03-22T12:09:41.943Z,12.30
2023-03-22T12:12:17.912Z,12.30
2023-03-22T12:14:52.775Z,12.30
2023-03-22T12:17:48.059Z,12.30
2023-03-22T12:20:43.445Z,12.30
2023-03-22T12:23:18.401Z,12.30
2023-03-22T12:25:55.164Z,12.40
2023-03-22T12:28:29.110Z,12.40
2023-03-22T12:30:58.599Z,12.40
2023-03-22T12:33:35.264Z,12.40
2023-03-22T12:36:05.372Z,12.40
2023-03-22T12:38:49.271Z,12.40
2023-03-22T12:41:24.723Z,12.40
2023-03-22T12:44:28.345Z,12.40
2023-03-22T12:47:03.563Z,12.50
2023-03-22T12:49:55.113Z,12.40
2023-03-22T12:52:49.171Z,12.40
2023-03-22T12:55:33.419Z,12.50
2023-03-22T12:58:01.722Z,12.50
2023-03-22T13:00:33.407Z,12.60
2023-03-22T13:03:17.343Z,12.60
2023-03-22T13:06:02.062Z,12.70
2023-03-22T13:09:15.916Z,12.60
2023-03-22T13:12:08.237Z,12.60
2023-03-22T13:14:53.248Z,12.70
2023-03-22T13:17:23.035Z,12.70
2023-03-22T13:19:59.312Z,12.70
2023-03-22T13:22:31.960Z,12.70
2023-03-22T13:25:14.771Z,12.70
2023-03-22T13:28:26.456Z,12.80
2023-03-22T13:30:57.843Z,12.80
2023-03-22T13:33:27.777Z,12.80
2023-03-22T13:35:56.927Z,12.70
2023-03-22T13:38:35.628Z,12.60
2023-03-22T13:41:34.674Z,12.70
2023-03-22T13:44:21.478Z,12.70
2023-03-22T13:46:58.120Z,12.70
2023-03-22T13:49:31.347Z,12.70
2023-03-22T13:52:00.961Z,12.70
2023-03-22T13:54:42.705Z,12.70
2023-03-22T13:57:49.217Z,12.70
2023-03-22T14:00:34.298Z,12.70
2023-03-22T14:03:28.743Z,12.70
2023-03-22T14:06:24.265Z,12.70
2023-03-22T14:08:59.192Z,12.60
2023-03-22T14:11:38.074Z,12.60
2023-03-22T14:14:22.361Z,12.50
2023-03-22T14:16:53.786Z,12.50
2023-03-22T14:19:25.102Z,12.40
